createdAt,value
2019-02-02T00:01:10.486Z,30.00
2019-02-02T00:03:39.742Z,30.13
2019-02-02T00:06:08.978Z,27.70
2019-02-02T00:08:38.318Z,35.40
2019-02-02T00:11:08.005Z,30.67
2019-02-02T00:13:37.295Z,35.80
2019-02-02T00:16:06.483Z,32.50
2019-02-02T00:18:35.838Z,33.27
2019-02-02T00:21:06.415Z,33.53
2019-02-02T00:23:35.995Z,35.20
2019-02-02T00:26:05.251Z,35.73
2019-02-02T00:28:36.271Z,36.83
2019-02-02T00:31:05.524Z,32.37
2019-02-02T00:33:34.771Z,31.73
2019-02-02T00:36:04.021Z,30.13
2019-02-02T00:38:34.443Z,35.87
2019-02-02T00:41:03.780Z,34.67
2019-02-02T00:43:33.395Z,31.33
2019-02-02T00:46:03.012Z,30.83
2019-02-02T00:48:32.258Z,33.13
2019-02-02T00:51:01.551Z,34.77
2019-02-02T00:53:30.799Z,35.23
2019-02-02T00:56:00.042Z,33.93
2019-02-02T00:58:29.215Z,38.33
2019-02-02T01:00:58.460Z,38.03
2019-02-02T01:03:27.740Z,36.90
2019-02-02T01:05:56.986Z,35.27
2019-02-02T01:08:26.239Z,30.73
2019-02-02T01:10:55.487Z,34.57
2019-02-02T01:13:24.836Z,37.40
2019-02-02T01:15:54.085Z,33.87
2019-02-02T01:18:24.472Z,35.17
2019-02-02T01:20:53.751Z,31.07
2019-02-02T01:23:23.019Z,34.47
2019-02-02T01:25:52.589Z,33.37
2019-02-02T01:28:22.204Z,37.80
2019-02-02T01:30:52.427Z,30.90
2019-02-02T01:33:21.687Z,42.87
2019-02-02T01:35:50.935Z,31.93
2019-02-02T01:38:20.216Z,35.07
2019-02-02T01:40:49.493Z,33.20
2019-02-02T01:43:18.719Z,29.83
2019-02-02T01:45:48.139Z,32.60
2019-02-02T01:48:17.392Z,35.40
2019-02-02T01:50:46.642Z,36.97
2019-02-02T01:53:16.287Z,29.97
2019-02-02T01:55:45.535Z,34.83
2019-02-02T01:58:16.851Z,34.33
2019-02-02T02:00:45.814Z,31.60
2019-02-02T02:03:15.428Z,30.00
2019-02-02T02:05:45.655Z,32.50
2019-02-02T02:08:14.902Z,31.27
2019-02-02T02:10:45.139Z,35.73
2019-02-02T02:13:14.698Z,36.20
2019-02-02T02:15:43.952Z,32.43
2019-02-02T02:18:13.291Z,33.70
2019-02-02T02:20:43.507Z,42.10
2019-02-02T02:23:13.026Z,32.93
2019-02-02T02:25:42.309Z,37.33
2019-02-02T02:28:11.554Z,30.53
2019-02-02T02:30:40.803Z,34.57
2019-02-02T02:33:11.748Z,32.93
2019-02-02T02:35:41.000Z,30.53
2019-02-02T02:38:10.255Z,32.40
2019-02-02T02:40:39.502Z,30.50
2019-02-02T02:43:08.773Z,36.47
2019-02-02T02:45:38.302Z,37.77
2019-02-02T02:48:07.643Z,31.37
2019-02-02T02:50:37.799Z,37.73
2019-02-02T02:53:07.046Z,29.40
2019-02-02T02:55:36.643Z,35.13
2019-02-02T02:58:06.967Z,31.27
2019-02-02T03:00:36.211Z,33.57
2019-02-02T03:03:05.668Z,31.40
2019-02-02T03:05:34.920Z,36.17
2019-02-02T03:08:04.172Z,33.50
2019-02-02T03:10:33.427Z,34.80
2019-02-02T03:13:02.681Z,35.73
2019-02-02T03:15:31.955Z,36.90
2019-02-02T03:18:01.202Z,35.90
2019-02-02T03:20:30.452Z,34.33
2019-02-02T03:22:59.917Z,31.37
2019-02-02T03:25:29.167Z,29.77
2019-02-02T03:27:58.408Z,35.77
2019-02-02T03:30:27.812Z,33.63
2019-02-02T03:32:57.118Z,37.27
2019-02-02T03:35:27.395Z,33.53
2019-02-02T03:37:56.643Z,35.40
2019-02-02T03:40:25.895Z,32.63
2019-02-02T03:42:55.163Z,35.07
2019-02-02T03:45:24.672Z,37.53
2019-02-02T03:47:54.760Z,41.63
2019-02-02T03:50:24.018Z,38.63
2019-02-02T03:52:53.287Z,39.83
2019-02-02T03:55:22.663Z,37.53
2019-02-02T03:57:51.929Z,41.90
2019-02-02T04:00:22.208Z,44.53
2019-02-02T04:02:51.746Z,42.83
2019-02-02T04:05:26.743Z,41.07
2019-02-02T04:07:55.994Z,50.00
2019-02-02T04:10:25.247Z,45.33
2019-02-02T04:12:54.795Z,54.93
2019-02-02T04:15:24.178Z,46.83
2019-02-02T04:17:53.459Z,44.20
2019-02-02T04:20:23.349Z,50.60
2019-02-02T04:22:52.604Z,51.33
2019-02-02T04:25:22.743Z,53.47
2019-02-02T04:27:52.366Z,49.20
2019-02-02T04:30:23.685Z,50.33
2019-02-02T04:32:52.931Z,56.37
2019-02-02T04:35:22.835Z,52.93
2019-02-02T04:37:53.575Z,49.17
2019-02-02T04:40:23.179Z,57.17
2019-02-02T04:42:53.468Z,52.43
2019-02-02T04:45:22.723Z,52.80
2019-02-02T04:47:52.073Z,50.03
2019-02-02T04:50:21.697Z,50.50
2019-02-02T04:52:50.951Z,53.93
2019-02-02T04:55:21.244Z,54.13
2019-02-02T04:57:50.495Z,51.87
2019-02-02T05:00:25.691Z,57.90
2019-02-02T05:02:55.167Z,63.70
2019-02-02T05:05:24.522Z,59.73
2019-02-02T05:07:54.224Z,60.47
2019-02-02T05:10:24.223Z,60.20
2019-02-02T05:12:53.778Z,55.37
2019-02-02T05:15:23.094Z,65.20
2019-02-02T05:17:52.664Z,64.67
2019-02-02T05:20:22.991Z,57.43
2019-02-02T05:22:53.556Z,54.83
2019-02-02T05:25:22.859Z,58.83
2019-02-02T05:27:52.440Z,60.90
2019-02-02T05:30:27.843Z,56.10
2019-02-02T05:32:57.091Z,51.37
2019-02-02T05:35:27.603Z,55.50
2019-02-02T05:37:58.863Z,54.40
2019-02-02T05:40:28.115Z,55.40
2019-02-02T05:42:57.373Z,69.83
2019-02-02T05:45:26.619Z,57.83
2019-02-02T05:47:55.895Z,49.73
2019-02-02T05:50:25.219Z,45.83
2019-02-02T05:52:56.091Z,49.13
2019-02-02T05:55:25.483Z,50.17
2019-02-02T05:57:55.799Z,45.80
2019-02-02T06:00:31.566Z,39.40
2019-02-02T06:03:00.819Z,46.57
2019-02-02T06:05:30.072Z,39.47
2019-02-02T06:07:59.326Z,46.37
2019-02-02T06:10:28.575Z,40.30
2019-02-02T06:12:58.923Z,37.00
2019-02-02T06:15:28.844Z,38.97
2019-02-02T06:17:58.392Z,44.73
2019-02-02T06:20:27.647Z,41.10
2019-02-02T06:22:56.890Z,43.57
2019-02-02T06:25:26.195Z,46.23
2019-02-02T06:27:55.435Z,41.00
2019-02-02T06:30:25.328Z,43.90
2019-02-02T06:32:54.583Z,37.20
2019-02-02T06:35:23.835Z,51.97
2019-02-02T06:37:53.248Z,39.63
2019-02-02T06:40:24.204Z,42.13
2019-02-02T06:42:53.463Z,48.97
2019-02-02T06:45:26.320Z,42.90
2019-02-02T06:47:57.147Z,42.37
2019-02-02T06:50:26.696Z,52.50
2019-02-02T06:52:56.387Z,51.10
2019-02-02T06:55:25.636Z,47.43
2019-02-02T06:57:54.891Z,49.53
2019-02-02T07:00:29.107Z,51.23
2019-02-02T07:02:59.115Z,48.17
2019-02-02T07:05:28.371Z,46.97
2019-02-02T07:07:57.623Z,49.80
2019-02-02T07:10:28.711Z,55.20
2019-02-02T07:12:57.959Z,50.17
2019-02-02T07:15:31.366Z,51.47
2019-02-02T07:18:00.592Z,50.73
2019-02-02T07:20:29.841Z,52.47
2019-02-02T07:22:59.091Z,52.40
2019-02-02T07:25:28.351Z,44.87
2019-02-02T07:27:57.643Z,47.20
2019-02-02T07:30:29.489Z,44.50
2019-02-02T07:32:57.876Z,48.20
2019-02-02T07:35:27.373Z,49.30
2019-02-02T07:37:56.624Z,47.73
2019-02-02T07:40:25.881Z,54.33
2019-02-02T07:42:57.235Z,48.50
2019-02-02T07:45:29.241Z,47.07
2019-02-02T07:47:58.832Z,48.07
2019-02-02T07:50:28.083Z,64.03
2019-02-02T07:52:57.336Z,63.13
2019-02-02T07:55:26.583Z,62.87
2019-02-02T07:57:56.597Z,57.37
2019-02-02T08:00:39.732Z,58.87
2019-02-02T08:02:59.095Z,65.30
2019-02-02T08:05:28.351Z,60.67
2019-02-02T08:07:57.600Z,61.30
2019-02-02T08:10:27.143Z,53.63
2019-02-02T08:12:56.396Z,54.27
2019-02-02T08:15:27.890Z,55.73
2019-02-02T08:17:57.172Z,54.83
2019-02-02T08:20:28.313Z,47.07
2019-02-02T08:22:57.612Z,48.40
2019-02-02T08:25:26.943Z,45.57
2019-02-02T08:27:56.168Z,72.40
2019-02-02T08:30:27.547Z,55.10
2019-02-02T08:33:08.816Z,55.43
2019-02-02T08:35:38.062Z,51.43
2019-02-02T08:38:07.315Z,47.93
2019-02-02T08:40:36.580Z,53.33
2019-02-02T08:43:06.827Z,50.47
2019-02-02T08:45:36.123Z,53.90
2019-02-02T08:48:05.493Z,51.77
2019-02-02T08:50:36.383Z,60.03
2019-02-02T08:53:06.013Z,61.83
2019-02-02T08:55:35.341Z,64.57
2019-02-02T08:58:05.672Z,59.20
2019-02-02T09:00:35.033Z,61.60
2019-02-02T09:03:04.284Z,64.77
2019-02-02T09:05:33.531Z,62.80
2019-02-02T09:08:02.784Z,62.33
2019-02-02T09:10:32.079Z,56.57
2019-02-02T09:13:01.449Z,62.73
2019-02-02T09:15:30.695Z,63.20
2019-02-02T09:18:00.352Z,62.77
2019-02-02T09:20:29.604Z,68.07
2019-02-02T09:23:05.752Z,60.13
2019-02-02T09:25:30.103Z,59.17
2019-02-02T09:27:59.363Z,63.97
2019-02-02T09:30:33.867Z,72.30
2019-02-02T09:33:03.925Z,66.20
2019-02-02T09:35:33.244Z,64.97
2019-02-02T09:38:02.499Z,62.97
2019-02-02T09:40:32.104Z,67.00
2019-02-02T09:43:01.354Z,64.90
2019-02-02T09:45:32.879Z,64.87
2019-02-02T09:48:02.131Z,73.47
2019-02-02T09:50:31.382Z,67.00
2019-02-02T09:53:00.635Z,64.23
2019-02-02T09:55:29.887Z,64.77
2019-02-02T09:58:08.434Z,60.93
2019-02-02T10:00:36.426Z,65.67
2019-02-02T10:03:06.149Z,69.20
2019-02-02T10:05:35.399Z,71.07
2019-02-02T10:08:04.651Z,76.60
2019-02-02T10:10:34.644Z,70.60
2019-02-02T10:13:05.787Z,68.70
2019-02-02T10:15:36.587Z,80.30
2019-02-02T10:18:06.268Z,74.27
2019-02-02T10:20:35.521Z,67.00
2019-02-02T10:23:04.778Z,66.07
2019-02-02T10:25:34.144Z,77.90
2019-02-02T10:28:03.408Z,77.93
2019-02-02T10:30:34.959Z,81.27
2019-02-02T10:33:04.487Z,75.73
2019-02-02T10:35:33.811Z,82.00
2019-02-02T10:38:04.398Z,74.27
2019-02-02T10:40:33.644Z,79.60
2019-02-02T10:43:03.677Z,84.83
2019-02-02T10:45:33.196Z,74.90
2019-02-02T10:48:03.139Z,84.27
2019-02-02T10:50:32.651Z,77.80
2019-02-02T10:53:01.911Z,78.63
2019-02-02T10:55:31.556Z,66.93
2019-02-02T10:58:00.812Z,86.70
2019-02-02T11:00:33.815Z,77.27
2019-02-02T11:03:03.062Z,78.20
2019-02-02T11:05:32.323Z,75.80
2019-02-02T11:08:01.728Z,74.10
2019-02-02T11:10:32.440Z,87.73
2019-02-02T11:13:01.659Z,76.70
2019-02-02T11:15:30.929Z,89.93
2019-02-02T11:18:00.199Z,86.57
2019-02-02T11:20:32.141Z,80.83
2019-02-02T11:23:01.540Z,76.57
2019-02-02T11:25:31.242Z,79.40
2019-02-02T11:28:00.916Z,80.53
2019-02-02T11:30:30.329Z,81.10
2019-02-02T11:32:59.588Z,74.23
2019-02-02T11:35:29.125Z,77.80
2019-02-02T11:38:00.133Z,73.00
2019-02-02T11:40:33.867Z,75.67
2019-02-02T11:43:03.514Z,85.67
2019-02-02T11:45:32.775Z,67.47
2019-02-02T11:48:02.024Z,70.63
2019-02-02T11:50:31.599Z,76.13
2019-02-02T11:53:00.849Z,63.83
2019-02-02T11:55:31.092Z,72.47
2019-02-02T11:58:00.346Z,76.17
2019-02-02T12:00:38.115Z,71.33
2019-02-02T12:03:07.363Z,80.20
2019-02-02T12:05:36.627Z,76.73
2019-02-02T12:08:06.041Z,78.97
2019-02-02T12:10:35.930Z,71.67
2019-02-02T12:13:05.671Z,77.03
2019-02-02T12:15:36.364Z,74.07
2019-02-02T12:18:06.351Z,73.13
2019-02-02T12:20:35.769Z,79.87
2019-02-02T12:23:05.055Z,78.13
2019-02-02T12:25:34.299Z,76.07
2019-02-02T12:28:03.549Z,75.57
2019-02-02T12:30:34.468Z,74.87
2019-02-02T12:33:04.090Z,75.00
2019-02-02T12:35:33.341Z,77.50
2019-02-02T12:38:03.387Z,75.83
2019-02-02T12:40:33.134Z,74.37
2019-02-02T12:43:02.382Z,78.57
2019-02-02T12:45:37.603Z,69.57
2019-02-02T12:48:08.349Z,69.33
2019-02-02T12:50:37.918Z,70.10
2019-02-02T12:53:07.239Z,74.13
2019-02-02T12:55:36.511Z,76.13
2019-02-02T12:58:06.593Z,72.87
2019-02-02T13:00:35.834Z,67.33
2019-02-02T13:03:05.315Z,67.37
2019-02-02T13:05:34.600Z,78.70
2019-02-02T13:08:05.274Z,78.47
2019-02-02T13:10:36.754Z,78.50
2019-02-02T13:13:06.359Z,76.77
2019-02-02T13:15:35.615Z,82.93
2019-02-02T13:18:04.872Z,76.27
2019-02-02T13:20:34.340Z,79.57
2019-02-02T13:23:03.576Z,77.77
2019-02-02T13:25:32.839Z,75.53
2019-02-02T13:28:02.804Z,82.73
2019-02-02T13:30:35.772Z,76.33
2019-02-02T13:33:05.311Z,75.57
2019-02-02T13:35:36.398Z,77.20
2019-02-02T13:38:05.655Z,69.43
2019-02-02T13:40:34.904Z,75.63
2019-02-02T13:43:04.164Z,74.13
2019-02-02T13:45:33.418Z,66.53
2019-02-02T13:48:02.667Z,67.97
2019-02-02T13:50:32.976Z,73.07
2019-02-02T13:53:02.497Z,71.10
2019-02-02T13:55:31.739Z,79.93
2019-02-02T13:58:00.964Z,80.73
2019-02-02T14:00:33.857Z,85.50
2019-02-02T14:03:03.832Z,81.03
2019-02-02T14:05:33.463Z,77.17
2019-02-02T14:08:02.719Z,89.47
2019-02-02T14:10:33.709Z,78.93
2019-02-02T14:13:03.071Z,77.50
2019-02-02T14:15:32.328Z,83.70
2019-02-02T14:18:01.571Z,78.23
2019-02-02T14:20:31.215Z,82.67
2019-02-02T14:23:00.460Z,77.57
2019-02-02T14:25:29.760Z,91.70
2019-02-02T14:27:59.183Z,76.27
2019-02-02T14:30:28.811Z,73.13
2019-02-02T14:32:58.068Z,77.90
2019-02-02T14:35:28.575Z,80.13
2019-02-02T14:37:57.831Z,81.20
2019-02-02T14:40:27.100Z,79.63
2019-02-02T14:42:56.692Z,75.47
2019-02-02T14:45:27.590Z,83.13
2019-02-02T14:47:57.341Z,84.07
2019-02-02T14:50:26.592Z,84.10
2019-02-02T14:52:57.039Z,75.07
2019-02-02T14:55:28.330Z,73.93
2019-02-02T14:57:57.674Z,76.03
2019-02-02T15:00:29.464Z,75.43
2019-02-02T15:02:58.726Z,86.27
2019-02-02T15:05:27.962Z,73.40
2019-02-02T15:07:57.216Z,84.30
2019-02-02T15:10:26.788Z,87.30
2019-02-02T15:12:57.895Z,90.60
2019-02-02T15:15:27.138Z,76.87
2019-02-02T15:17:56.699Z,79.83
2019-02-02T15:20:28.646Z,85.10
2019-02-02T15:22:58.221Z,77.50
2019-02-02T15:25:27.567Z,83.03
2019-02-02T15:27:57.138Z,81.30
2019-02-02T15:30:34.075Z,88.50
2019-02-02T15:33:03.956Z,85.33
2019-02-02T15:35:33.306Z,90.57
2019-02-02T15:38:02.560Z,92.93
2019-02-02T15:40:32.037Z,85.83
2019-02-02T15:43:01.382Z,85.97
2019-02-02T15:45:32.360Z,91.03
2019-02-02T15:48:03.811Z,98.70
2019-02-02T15:50:33.063Z,98.27
2019-02-02T15:53:04.635Z,94.33
2019-02-02T15:55:33.897Z,95.27
2019-02-02T15:58:03.147Z,89.57
2019-02-02T16:00:34.539Z,105.20
2019-02-02T16:03:05.367Z,95.67
2019-02-02T16:05:35.363Z,86.43
2019-02-02T16:08:08.089Z,106.77
2019-02-02T16:10:37.343Z,101.37
2019-02-02T16:13:06.621Z,100.43
2019-02-02T16:15:35.851Z,92.60
2019-02-02T16:18:05.550Z,84.27
2019-02-02T16:20:42.224Z,95.87
2019-02-02T16:23:11.753Z,100.43
2019-02-02T16:25:40.963Z,99.53
2019-02-02T16:28:10.215Z,105.47
2019-02-02T16:30:39.819Z,104.73
2019-02-02T16:33:09.121Z,100.17
2019-02-02T16:35:38.375Z,93.47
2019-02-02T16:38:07.628Z,96.50
2019-02-02T16:40:36.882Z,87.17
2019-02-02T16:43:06.143Z,85.13
2019-02-02T16:45:35.747Z,149.47
2019-02-02T16:48:05.551Z,93.73
2019-02-02T16:50:34.956Z,92.73
2019-02-02T16:53:04.580Z,87.50
2019-02-02T16:55:35.320Z,88.87
2019-02-02T16:58:04.739Z,94.10
2019-02-02T17:00:34.555Z,91.70
2019-02-02T17:03:03.822Z,90.00
2019-02-02T17:05:33.067Z,101.27
2019-02-02T17:08:02.656Z,104.20
2019-02-02T17:10:33.949Z,103.97
2019-02-02T17:13:05.141Z,105.50
2019-02-02T17:15:34.764Z,97.17
2019-02-02T17:18:04.556Z,98.70
2019-02-02T17:20:36.610Z,96.77
2019-02-02T17:23:06.034Z,104.20
2019-02-02T17:25:35.668Z,83.03
2019-02-02T17:28:05.460Z,106.67
2019-02-02T17:30:35.007Z,96.40
2019-02-02T17:33:09.480Z,101.00
2019-02-02T17:35:38.738Z,102.07
2019-02-02T17:38:07.991Z,94.70
2019-02-02T17:40:37.245Z,94.53
2019-02-02T17:43:06.600Z,99.07
2019-02-02T17:45:36.136Z,110.87
2019-02-02T17:48:05.919Z,88.03
2019-02-02T17:50:36.241Z,93.83
2019-02-02T17:53:05.487Z,88.73
2019-02-02T17:55:35.707Z,83.37
2019-02-02T17:58:04.963Z,85.73
2019-02-02T18:00:38.319Z,93.93
2019-02-02T18:03:07.578Z,86.00
2019-02-02T18:05:36.823Z,92.43
2019-02-02T18:08:06.075Z,95.93
2019-02-02T18:10:35.619Z,88.60
2019-02-02T18:13:04.988Z,91.63
2019-02-02T18:15:34.236Z,83.50
2019-02-02T18:18:03.756Z,90.77
2019-02-02T18:20:33.012Z,94.57
2019-02-02T18:23:02.264Z,93.07
2019-02-02T18:25:33.390Z,83.97
2019-02-02T18:28:22.164Z,84.87
2019-02-02T18:30:51.447Z,87.97
2019-02-02T18:33:21.086Z,80.10
2019-02-02T18:35:50.336Z,76.33
2019-02-02T18:38:19.592Z,80.07
2019-02-02T18:40:48.839Z,84.50
2019-02-02T18:43:18.093Z,84.67
2019-02-02T18:45:47.344Z,99.47
2019-02-02T18:48:16.647Z,76.63
2019-02-02T18:50:46.207Z,79.13
2019-02-02T18:53:15.823Z,78.33
2019-02-02T18:55:51.989Z,76.70
2019-02-02T18:58:21.735Z,79.90
2019-02-02T19:00:51.379Z,80.77
2019-02-02T19:03:20.643Z,82.83
2019-02-02T19:05:49.895Z,76.07
2019-02-02T19:08:19.502Z,80.57
2019-02-02T19:10:48.778Z,98.63
2019-02-02T19:13:18.022Z,99.87
2019-02-02T19:15:47.544Z,84.23
2019-02-02T19:18:16.875Z,88.53
2019-02-02T19:20:46.455Z,78.70
2019-02-02T19:23:24.930Z,90.30
2019-02-02T19:25:46.629Z,84.23
2019-02-02T19:28:15.872Z,80.70
2019-02-02T19:30:45.588Z,84.07
2019-02-02T19:33:15.203Z,84.33
2019-02-02T19:35:44.452Z,86.00
2019-02-02T19:38:13.702Z,82.73
2019-02-02T19:40:42.956Z,92.47
2019-02-02T19:43:12.230Z,92.13
2019-02-02T19:45:41.480Z,92.90
2019-02-02T19:48:10.735Z,93.33
2019-02-02T19:50:40.121Z,89.23
2019-02-02T19:53:09.589Z,91.87
2019-02-02T19:55:38.807Z,90.57
2019-02-02T19:58:08.855Z,92.00
2019-02-02T20:00:38.147Z,93.93
2019-02-02T20:03:07.527Z,97.20
2019-02-02T20:05:37.284Z,99.73
2019-02-02T20:08:06.535Z,97.20
2019-02-02T20:10:35.810Z,103.83
2019-02-02T20:13:06.352Z,102.40
2019-02-02T20:15:35.923Z,97.13
2019-02-02T20:18:09.843Z,99.27
2019-02-02T20:20:36.788Z,101.47
2019-02-02T20:23:06.042Z,100.30
2019-02-02T20:25:35.393Z,104.83
2019-02-02T20:28:04.679Z,103.67
2019-02-02T20:30:33.935Z,107.30
2019-02-02T20:33:03.196Z,92.37
2019-02-02T20:35:40.881Z,92.30
2019-02-02T20:38:03.659Z,93.47
2019-02-02T20:40:33.270Z,100.90
2019-02-02T20:43:02.549Z,98.77
2019-02-02T20:45:37.205Z,100.20
2019-02-02T20:48:07.795Z,99.60
2019-02-02T20:50:37.043Z,99.40
2019-02-02T20:53:06.313Z,108.23
2019-02-02T20:55:38.936Z,100.10
2019-02-02T20:58:08.182Z,94.23
2019-02-02T21:00:38.492Z,107.00
2019-02-02T21:03:07.747Z,99.67
2019-02-02T21:05:37.645Z,113.43
2019-02-02T21:08:07.191Z,102.20
2019-02-02T21:10:36.457Z,111.00
2019-02-02T21:13:05.711Z,99.97
2019-02-02T21:15:34.963Z,99.57
2019-02-02T21:18:04.800Z,110.73
2019-02-02T21:20:35.328Z,113.97
2019-02-02T21:23:04.592Z,110.77
2019-02-02T21:25:34.046Z,111.77
2019-02-02T21:28:04.847Z,111.43
2019-02-02T21:30:35.455Z,112.60
2019-02-02T21:33:05.272Z,107.70
2019-02-02T21:35:34.839Z,111.03
2019-02-02T21:38:04.279Z,118.97
2019-02-02T21:40:34.679Z,119.57
2019-02-02T21:43:04.012Z,107.27
2019-02-02T21:45:34.077Z,115.07
2019-02-02T21:48:03.323Z,116.43
2019-02-02T21:50:32.579Z,122.63
2019-02-02T21:53:01.836Z,129.47
2019-02-02T21:55:31.214Z,130.17
2019-02-02T21:58:00.551Z,138.23
2019-02-02T22:00:35.364Z,137.10
2019-02-02T22:03:07.587Z,158.07
2019-02-02T22:05:36.845Z,137.37
2019-02-02T22:08:06.841Z,139.10
2019-02-02T22:10:36.095Z,136.70
2019-02-02T22:13:05.728Z,136.83
2019-02-02T22:15:36.909Z,148.10
2019-02-02T22:18:06.521Z,143.70
2019-02-02T22:20:35.803Z,143.67
2019-02-02T22:23:05.059Z,154.10
2019-02-02T22:25:34.635Z,152.40
2019-02-02T22:28:03.891Z,150.57
2019-02-02T22:30:38.899Z,151.90
2019-02-02T22:33:08.151Z,155.50
2019-02-02T22:35:37.414Z,157.30
2019-02-02T22:38:06.666Z,170.03
2019-02-02T22:40:35.919Z,168.23
2019-02-02T22:43:05.387Z,147.97
2019-02-02T22:45:34.641Z,172.30
2019-02-02T22:48:04.644Z,173.63
2019-02-02T22:50:33.904Z,177.90
2019-02-02T22:53:03.155Z,179.67
2019-02-02T22:55:33.753Z,168.40
2019-02-02T22:58:03.003Z,168.63
2019-02-02T23:00:51.706Z,165.30
2019-02-02T23:03:24.791Z,178.53
2019-02-02T23:06:00.078Z,168.73
2019-02-02T23:08:41.181Z,169.53
2019-02-02T23:11:42.499Z,166.73
2019-02-02T23:14:30.231Z,160.50
2019-02-02T23:16:59.553Z,180.83
2019-02-02T23:19:28.792Z,174.23
2019-02-02T23:21:58.047Z,171.57
2019-02-02T23:24:27.303Z,169.67
2019-02-02T23:26:56.891Z,159.37
2019-02-02T23:29:26.880Z,166.60
2019-02-02T23:31:56.132Z,160.00
2019-02-02T23:34:25.386Z,173.53
2019-02-02T23:36:56.103Z,178.60
2019-02-02T23:39:25.655Z,154.87
2019-02-02T23:41:54.999Z,188.37
2019-02-02T23:44:24.246Z,169.57
2019-02-02T23:46:56.096Z,174.07
2019-02-02T23:49:25.641Z,156.73
2019-02-02T23:51:55.195Z,157.57
2019-02-02T23:54:24.452Z,149.43
2019-02-02T23:56:53.703Z,152.33
2019-02-02T23:59:22.985Z,155.97
